sensor_id;sensor_type;location;lat;lon;timestamp;P1;durP1;ratioP1;P2;durP2;ratioP2
1625;SDS011;806;48.770;9.156;2023-05-09T00:00:54;6.10;;;5.50;;
1625;SDS011;806;48.770;9.156;2023-05-09T00:03:21;6.63;;;5.82;;
1625;SDS011;806;48.770;9.156;2023-05-09T00:05:50;7.70;;;7.00;;
1625;SDS011;806;48.770;9.156;2023-05-09T00:08:17;9.20;;;6.70;;
1625;SDS011;806;48.770;9.156;2023-05-09T00:10:45;8.80;;;5.97;;
1625;SDS011;806;48.770;9.156;2023-05-09T00:13:12;10.20;;;6.78;;
1625;SDS011;806;48.770;9.156;2023-05-09T00:15:39;7.97;;;6.45;;
1625;SDS011;806;48.770;9.156;2023-05-09T00:18:06;8.43;;;6.60;;
1625;SDS011;806;48.770;9.156;2023-05-09T00:20:33;6.68;;;5.07;;
1625;SDS011;806;48.770;9.156;2023-05-09T00:23:02;6.68;;;5.85;;
1625;SDS011;806;48.770;9.156;2023-05-09T00:25:30;6.57;;;5.90;;
1625;SDS011;806;48.770;9.156;2023-05-09T00:27:57;7.45;;;5.75;;
1625;SDS011;806;48.770;9.156;2023-05-09T00:30:24;8.00;;;7.20;;
1625;SDS011;806;48.770;9.156;2023-05-09T00:32:51;8.38;;;7.00;;
1625;SDS011;806;48.770;9.156;2023-05-09T00:35:18;8.87;;;7.80;;
1625;SDS011;806;48.770;9.156;2023-05-09T00:37:45;8.40;;;7.17;;
1625;SDS011;806;48.770;9.156;2023-05-09T00:40:14;9.32;;;7.55;;
1625;SDS011;806;48.770;9.156;2023-05-09T00:42:41;10.23;;;7.70;;
1625;SDS011;806;48.770;9.156;2023-05-09T00:45:08;8.57;;;6.80;;
1625;SDS011;806;48.770;9.156;2023-05-09T00:47:36;10.35;;;6.78;;
1625;SDS011;806;48.770;9.156;2023-05-09T00:50:04;11.10;;;8.80;;
1625;SDS011;806;48.770;9.156;2023-05-09T00:52:32;8.90;;;8.00;;
1625;SDS011;806;48.770;9.156;2023-05-09T00:54:59;10.63;;;9.45;;
1625;SDS011;806;48.770;9.156;2023-05-09T00:57:30;11.05;;;9.05;;
1625;SDS011;806;48.770;9.156;2023-05-09T00:59:57;9.40;;;8.30;;
1625;SDS011;806;48.770;9.156;2023-05-09T01:02:24;9.65;;;7.82;;
1625;SDS011;806;48.770;9.156;2023-05-09T01:04:53;10.48;;;9.00;;
1625;SDS011;806;48.770;9.156;2023-05-09T01:07:21;11.13;;;9.00;;
1625;SDS011;806;48.770;9.156;2023-05-09T01:09:59;10.88;;;9.15;;
1625;SDS011;806;48.770;9.156;2023-05-09T01:12:36;10.60;;;9.30;;
1625;SDS011;806;48.770;9.156;2023-05-09T01:15:13;10.18;;;8.45;;
1625;SDS011;806;48.770;9.156;2023-05-09T01:17:48;11.20;;;9.02;;
1625;SDS011;806;48.770;9.156;2023-05-09T01:20:22;11.07;;;8.80;;
1625;SDS011;806;48.770;9.156;2023-05-09T01:22:59;12.27;;;10.10;;
1625;SDS011;806;48.770;9.156;2023-05-09T01:25:43;11.82;;;9.43;;
1625;SDS011;806;48.770;9.156;2023-05-09T01:28:27;12.48;;;9.70;;
1625;SDS011;806;48.770;9.156;2023-05-09T01:31:02;11.75;;;9.93;;
1625;SDS011;806;48.770;9.156;2023-05-09T01:33:31;12.15;;;9.10;;
1625;SDS011;806;48.770;9.156;2023-05-09T01:36:03;11.98;;;9.50;;
1625;SDS011;806;48.770;9.156;2023-05-09T01:38:33;11.48;;;10.20;;
1625;SDS011;806;48.770;9.156;2023-05-09T01:41:04;12.50;;;9.82;;
1625;SDS011;806;48.770;9.156;2023-05-09T01:43:33;12.73;;;10.27;;
1625;SDS011;806;48.770;9.156;2023-05-09T01:46:04;11.00;;;9.10;;
1625;SDS011;806;48.770;9.156;2023-05-09T01:48:32;10.60;;;9.02;;
1625;SDS011;806;48.770;9.156;2023-05-09T01:51:01;12.32;;;9.80;;
1625;SDS011;806;48.770;9.156;2023-05-09T01:53:30;11.18;;;9.40;;
1625;SDS011;806;48.770;9.156;2023-05-09T01:55:58;12.13;;;9.45;;
1625;SDS011;806;48.770;9.156;2023-05-09T01:58:26;11.40;;;9.32;;
1625;SDS011;806;48.770;9.156;2023-05-09T02:00:55;12.27;;;10.30;;
1625;SDS011;806;48.770;9.156;2023-05-09T02:03:24;12.40;;;9.55;;
1625;SDS011;806;48.770;9.156;2023-05-09T02:05:52;12.00;;;9.70;;
1625;SDS011;806;48.770;9.156;2023-05-09T02:08:21;12.10;;;9.50;;
1625;SDS011;806;48.770;9.156;2023-05-09T02:10:55;10.85;;;9.27;;
1625;SDS011;806;48.770;9.156;2023-05-09T02:13:22;11.35;;;9.68;;
1625;SDS011;806;48.770;9.156;2023-05-09T02:15:49;10.40;;;9.30;;
1625;SDS011;806;48.770;9.156;2023-05-09T02:18:17;11.27;;;9.05;;
1625;SDS011;806;48.770;9.156;2023-05-09T02:20:45;11.50;;;9.55;;
1625;SDS011;806;48.770;9.156;2023-05-09T02:23:13;10.82;;;8.68;;
1625;SDS011;806;48.770;9.156;2023-05-09T02:25:41;12.77;;;10.40;;
1625;SDS011;806;48.770;9.156;2023-05-09T02:28:09;12.15;;;9.25;;
1625;SDS011;806;48.770;9.156;2023-05-09T02:30:37;11.77;;;9.15;;
1625;SDS011;806;48.770;9.156;2023-05-09T02:33:11;12.68;;;8.95;;
1625;SDS011;806;48.770;9.156;2023-05-09T02:35:39;10.95;;;8.93;;
1625;SDS011;806;48.770;9.156;2023-05-09T02:38:09;11.43;;;8.35;;
1625;SDS011;806;48.770;9.156;2023-05-09T02:40:37;12.35;;;9.95;;
1625;SDS011;806;48.770;9.156;2023-05-09T02:43:05;11.38;;;9.85;;
1625;SDS011;806;48.770;9.156;2023-05-09T02:45:32;10.57;;;8.85;;
1625;SDS011;806;48.770;9.156;2023-05-09T02:47:59;11.18;;;9.93;;
1625;SDS011;806;48.770;9.156;2023-05-09T02:50:26;11.45;;;9.60;;
1625;SDS011;806;48.770;9.156;2023-05-09T02:52:53;12.38;;;9.27;;
1625;SDS011;806;48.770;9.156;2023-05-09T02:55:21;12.57;;;9.50;;
1625;SDS011;806;48.770;9.156;2023-05-09T02:57:48;12.45;;;10.45;;
1625;SDS011;806;48.770;9.156;2023-05-09T03:00:16;13.38;;;10.05;;
1625;SDS011;806;48.770;9.156;2023-05-09T03:02:43;11.77;;;9.57;;
1625;SDS011;806;48.770;9.156;2023-05-09T03:05:11;12.43;;;9.50;;
1625;SDS011;806;48.770;9.156;2023-05-09T03:07:38;13.30;;;9.73;;
1625;SDS011;806;48.770;9.156;2023-05-09T03:10:05;12.87;;;10.57;;
1625;SDS011;806;48.770;9.156;2023-05-09T03:12:36;13.10;;;10.07;;
1625;SDS011;806;48.770;9.156;2023-05-09T03:15:04;13.70;;;10.95;;
1625;SDS011;806;48.770;9.156;2023-05-09T03:17:32;13.27;;;11.20;;
1625;SDS011;806;48.770;9.156;2023-05-09T03:19:59;13.50;;;10.23;;
1625;SDS011;806;48.770;9.156;2023-05-09T03:22:29;12.63;;;10.82;;
1625;SDS011;806;48.770;9.156;2023-05-09T03:24:56;13.60;;;11.48;;
1625;SDS011;806;48.770;9.156;2023-05-09T03:27:25;12.60;;;10.30;;
1625;SDS011;806;48.770;9.156;2023-05-09T03:29:53;13.57;;;10.70;;
1625;SDS011;806;48.770;9.156;2023-05-09T03:32:20;12.80;;;9.75;;
1625;SDS011;806;48.770;9.156;2023-05-09T03:34:47;12.07;;;10.05;;
1625;SDS011;806;48.770;9.156;2023-05-09T03:37:14;15.73;;;11.20;;
1625;SDS011;806;48.770;9.156;2023-05-09T03:39:41;12.07;;;10.00;;
1625;SDS011;806;48.770;9.156;2023-05-09T03:42:09;13.82;;;10.85;;
1625;SDS011;806;48.770;9.156;2023-05-09T03:44:36;14.88;;;11.52;;
1625;SDS011;806;48.770;9.156;2023-05-09T03:47:04;13.70;;;10.18;;
1625;SDS011;806;48.770;9.156;2023-05-09T03:49:31;12.48;;;10.52;;
1625;SDS011;806;48.770;9.156;2023-05-09T03:51:58;12.23;;;10.57;;
1625;SDS011;806;48.770;9.156;2023-05-09T03:54:28;13.90;;;11.00;;
1625;SDS011;806;48.770;9.156;2023-05-09T03:56:55;13.48;;;10.52;;
1625;SDS011;806;48.770;9.156;2023-05-09T03:59:22;13.65;;;10.02;;
1625;SDS011;806;48.770;9.156;2023-05-09T04:01:49;13.60;;;10.63;;
1625;SDS011;806;48.770;9.156;2023-05-09T04:04:18;14.60;;;9.93;;
1625;SDS011;806;48.770;9.156;2023-05-09T04:06:45;12.90;;;10.00;;
1625;SDS011;806;48.770;9.156;2023-05-09T04:09:12;13.13;;;10.48;;
1625;SDS011;806;48.770;9.156;2023-05-09T04:11:40;10.30;;;9.20;;
1625;SDS011;806;48.770;9.156;2023-05-09T04:14:07;12.55;;;10.10;;
1625;SDS011;806;48.770;9.156;2023-05-09T04:16:34;11.02;;;8.57;;
1625;SDS011;806;48.770;9.156;2023-05-09T04:19:01;11.23;;;8.80;;
1625;SDS011;806;48.770;9.156;2023-05-09T04:21:29;10.65;;;8.50;;
1625;SDS011;806;48.770;9.156;2023-05-09T04:23:57;11.85;;;9.90;;
1625;SDS011;806;48.770;9.156;2023-05-09T04:26:24;12.20;;;9.75;;
1625;SDS011;806;48.770;9.156;2023-05-09T04:28:51;12.38;;;9.90;;
1625;SDS011;806;48.770;9.156;2023-05-09T04:31:18;12.23;;;9.27;;
1625;SDS011;806;48.770;9.156;2023-05-09T04:33:45;12.60;;;9.88;;
1625;SDS011;806;48.770;9.156;2023-05-09T04:36:12;10.85;;;9.23;;
1625;SDS011;806;48.770;9.156;2023-05-09T04:38:41;12.30;;;9.35;;
1625;SDS011;806;48.770;9.156;2023-05-09T04:41:08;12.85;;;9.15;;
1625;SDS011;806;48.770;9.156;2023-05-09T04:43:35;11.38;;;8.90;;
1625;SDS011;806;48.770;9.156;2023-05-09T04:46:02;11.68;;;9.27;;
1625;SDS011;806;48.770;9.156;2023-05-09T04:48:29;12.55;;;9.90;;
1625;SDS011;806;48.770;9.156;2023-05-09T04:50:56;12.35;;;8.43;;
1625;SDS011;806;48.770;9.156;2023-05-09T04:53:23;11.77;;;9.55;;
1625;SDS011;806;48.770;9.156;2023-05-09T04:55:52;12.73;;;9.10;;
1625;SDS011;806;48.770;9.156;2023-05-09T04:58:19;9.93;;;8.82;;
1625;SDS011;806;48.770;9.156;2023-05-09T05:00:46;12.00;;;9.20;;
1625;SDS011;806;48.770;9.156;2023-05-09T05:03:14;10.70;;;8.85;;
1625;SDS011;806;48.770;9.156;2023-05-09T05:05:42;13.82;;;8.70;;
1625;SDS011;806;48.770;9.156;2023-05-09T05:08:09;11.68;;;8.73;;
1625;SDS011;806;48.770;9.156;2023-05-09T05:10:36;10.60;;;8.85;;
1625;SDS011;806;48.770;9.156;2023-05-09T05:13:04;12.23;;;8.63;;
1625;SDS011;806;48.770;9.156;2023-05-09T05:15:32;10.25;;;8.40;;
1625;SDS011;806;48.770;9.156;2023-05-09T05:17:59;9.13;;;7.80;;
1625;SDS011;806;48.770;9.156;2023-05-09T05:20:26;8.82;;;7.22;;
1625;SDS011;806;48.770;9.156;2023-05-09T05:22:53;12.13;;;7.82;;
1625;SDS011;806;48.770;9.156;2023-05-09T05:25:20;11.40;;;8.63;;
1625;SDS011;806;48.770;9.156;2023-05-09T05:27:47;9.27;;;7.63;;
1625;SDS011;806;48.770;9.156;2023-05-09T05:30:16;9.30;;;7.60;;
1625;SDS011;806;48.770;9.156;2023-05-09T05:32:43;9.10;;;8.20;;
1625;SDS011;806;48.770;9.156;2023-05-09T05:35:10;9.25;;;7.45;;
1625;SDS011;806;48.770;9.156;2023-05-09T05:37:37;9.32;;;7.75;;
1625;SDS011;806;48.770;9.156;2023-05-09T05:40:05;13.38;;;8.70;;
1625;SDS011;806;48.770;9.156;2023-05-09T05:42:33;10.85;;;8.90;;
1625;SDS011;806;48.770;9.156;2023-05-09T05:45:01;9.57;;;7.50;;
1625;SDS011;806;48.770;9.156;2023-05-09T05:47:31;11.57;;;8.40;;
1625;SDS011;806;48.770;9.156;2023-05-09T05:49:58;12.00;;;8.90;;
1625;SDS011;806;48.770;9.156;2023-05-09T05:52:25;10.10;;;8.00;;
1625;SDS011;806;48.770;9.156;2023-05-09T05:54:53;10.80;;;9.02;;
1625;SDS011;806;48.770;9.156;2023-05-09T05:57:20;11.00;;;9.30;;
1625;SDS011;806;48.770;9.156;2023-05-09T05:59:47;12.55;;;10.20;;
1625;SDS011;806;48.770;9.156;2023-05-09T06:02:15;12.43;;;10.13;;
1625;SDS011;806;48.770;9.156;2023-05-09T06:04:43;13.53;;;9.50;;
1625;SDS011;806;48.770;9.156;2023-05-09T06:07:10;13.68;;;9.80;;
1625;SDS011;806;48.770;9.156;2023-05-09T06:09:38;12.13;;;9.55;;
1625;SDS011;806;48.770;9.156;2023-05-09T06:12:05;11.50;;;9.63;;
1625;SDS011;806;48.770;9.156;2023-05-09T06:14:32;11.05;;;9.77;;
1625;SDS011;806;48.770;9.156;2023-05-09T06:16:59;13.23;;;9.82;;
1625;SDS011;806;48.770;9.156;2023-05-09T06:19:27;12.87;;;9.30;;
1625;SDS011;806;48.770;9.156;2023-05-09T06:21:55;14.23;;;10.20;;
1625;SDS011;806;48.770;9.156;2023-05-09T06:24:22;12.50;;;10.05;;
1625;SDS011;806;48.770;9.156;2023-05-09T06:26:49;12.65;;;9.93;;
1625;SDS011;806;48.770;9.156;2023-05-09T06:29:16;11.60;;;10.40;;
1625;SDS011;806;48.770;9.156;2023-05-09T06:31:43;12.90;;;9.77;;
1625;SDS011;806;48.770;9.156;2023-05-09T06:34:10;11.90;;;10.70;;
1625;SDS011;806;48.770;9.156;2023-05-09T06:36:37;12.30;;;10.20;;
1625;SDS011;806;48.770;9.156;2023-05-09T06:39:06;13.53;;;9.93;;
1625;SDS011;806;48.770;9.156;2023-05-09T06:41:33;13.88;;;11.35;;
1625;SDS011;806;48.770;9.156;2023-05-09T06:44:00;11.05;;;9.55;;
1625;SDS011;806;48.770;9.156;2023-05-09T06:46:27;12.35;;;10.15;;
1625;SDS011;806;48.770;9.156;2023-05-09T06:48:54;14.50;;;11.48;;
1625;SDS011;806;48.770;9.156;2023-05-09T06:51:21;12.73;;;9.90;;
1625;SDS011;806;48.770;9.156;2023-05-09T06:53:49;14.00;;;9.30;;
1625;SDS011;806;48.770;9.156;2023-05-09T06:56:17;12.70;;;10.02;;
1625;SDS011;806;48.770;9.156;2023-05-09T06:58:47;12.40;;;9.57;;
1625;SDS011;806;48.770;9.156;2023-05-09T07:01:14;12.87;;;9.50;;
1625;SDS011;806;48.770;9.156;2023-05-09T07:03:41;12.65;;;9.25;;
1625;SDS011;806;48.770;9.156;2023-05-09T07:06:10;13.75;;;11.25;;
1625;SDS011;806;48.770;9.156;2023-05-09T07:08:37;14.85;;;10.52;;
1625;SDS011;806;48.770;9.156;2023-05-09T07:11:04;16.05;;;10.73;;
1625;SDS011;806;48.770;9.156;2023-05-09T07:13:33;12.40;;;10.00;;
1625;SDS011;806;48.770;9.156;2023-05-09T07:16:00;13.20;;;10.60;;
1625;SDS011;806;48.770;9.156;2023-05-09T07:18:27;13.90;;;9.75;;
1625;SDS011;806;48.770;9.156;2023-05-09T07:20:55;12.77;;;11.02;;
1625;SDS011;806;48.770;9.156;2023-05-09T07:23:22;10.38;;;9.23;;
1625;SDS011;806;48.770;9.156;2023-05-09T07:25:54;15.93;;;10.82;;
1625;SDS011;806;48.770;9.156;2023-05-09T07:28:22;15.35;;;12.10;;
1625;SDS011;806;48.770;9.156;2023-05-09T07:30:51;11.45;;;8.75;;
1625;SDS011;806;48.770;9.156;2023-05-09T07:33:20;12.40;;;9.50;;
1625;SDS011;806;48.770;9.156;2023-05-09T07:35:47;10.73;;;8.87;;
1625;SDS011;806;48.770;9.156;2023-05-09T07:38:14;11.85;;;8.90;;
1625;SDS011;806;48.770;9.156;2023-05-09T07:40:41;9.23;;;8.05;;
1625;SDS011;806;48.770;9.156;2023-05-09T07:43:08;10.25;;;8.35;;
1625;SDS011;806;48.770;9.156;2023-05-09T07:45:35;11.02;;;7.93;;
1625;SDS011;806;48.770;9.156;2023-05-09T07:48:04;11.00;;;8.13;;
1625;SDS011;806;48.770;9.156;2023-05-09T07:50:32;10.48;;;7.55;;
1625;SDS011;806;48.770;9.156;2023-05-09T07:52:59;8.00;;;7.20;;
1625;SDS011;806;48.770;9.156;2023-05-09T07:55:26;8.27;;;5.83;;
1625;SDS011;806;48.770;9.156;2023-05-09T07:57:53;5.82;;;4.57;;
1625;SDS011;806;48.770;9.156;2023-05-09T08:00:20;6.97;;;5.13;;
1625;SDS011;806;48.770;9.156;2023-05-09T08:02:48;6.80;;;6.10;;
1625;SDS011;806;48.770;9.156;2023-05-09T08:05:17;7.78;;;6.70;;
1625;SDS011;806;48.770;9.156;2023-05-09T08:07:44;6.20;;;5.07;;
1625;SDS011;806;48.770;9.156;2023-05-09T08:10:12;6.10;;;5.03;;
1625;SDS011;806;48.770;9.156;2023-05-09T08:12:39;5.38;;;4.03;;
1625;SDS011;806;48.770;9.156;2023-05-09T08:15:06;4.95;;;3.35;;
1625;SDS011;806;48.770;9.156;2023-05-09T08:17:34;5.93;;;4.50;;
1625;SDS011;806;48.770;9.156;2023-05-09T08:20:07;2.80;;;1.60;;
1625;SDS011;806;48.770;9.156;2023-05-09T08:22:38;4.13;;;2.75;;
1625;SDS011;806;48.770;9.156;2023-05-09T08:25:06;3.50;;;2.63;;
1625;SDS011;806;48.770;9.156;2023-05-09T08:27:34;3.67;;;3.05;;
1625;SDS011;806;48.770;9.156;2023-05-09T08:30:01;3.33;;;2.33;;
1625;SDS011;806;48.770;9.156;2023-05-09T08:32:28;2.97;;;1.90;;
1625;SDS011;806;48.770;9.156;2023-05-09T08:34:55;3.63;;;2.22;;
1625;SDS011;806;48.770;9.156;2023-05-09T08:37:25;3.05;;;2.30;;
1625;SDS011;806;48.770;9.156;2023-05-09T08:39:54;3.63;;;2.58;;
1625;SDS011;806;48.770;9.156;2023-05-09T08:42:21;3.22;;;2.63;;
1625;SDS011;806;48.770;9.156;2023-05-09T08:44:50;3.00;;;2.10;;
1625;SDS011;806;48.770;9.156;2023-05-09T08:47:17;2.70;;;1.90;;
1625;SDS011;806;48.770;9.156;2023-05-09T08:49:45;2.63;;;2.00;;
1625;SDS011;806;48.770;9.156;2023-05-09T08:52:14;3.20;;;2.50;;
1625;SDS011;806;48.770;9.156;2023-05-09T08:54:41;4.38;;;2.70;;
1625;SDS011;806;48.770;9.156;2023-05-09T08:57:09;4.43;;;2.92;;
1625;SDS011;806;48.770;9.156;2023-05-09T08:59:38;6.32;;;4.75;;
1625;SDS011;806;48.770;9.156;2023-05-09T09:02:07;5.50;;;4.13;;
1625;SDS011;806;48.770;9.156;2023-05-09T09:04:38;5.72;;;4.68;;
1625;SDS011;806;48.770;9.156;2023-05-09T09:07:05;6.93;;;4.18;;
1625;SDS011;806;48.770;9.156;2023-05-09T09:09:35;4.40;;;4.00;;
1625;SDS011;806;48.770;9.156;2023-05-09T09:12:03;5.55;;;3.28;;
1625;SDS011;806;48.770;9.156;2023-05-09T09:14:35;4.97;;;4.32;;
1625;SDS011;806;48.770;9.156;2023-05-09T09:17:07;3.47;;;3.17;;
1625;SDS011;806;48.770;9.156;2023-05-09T09:19:37;3.88;;;3.25;;
1625;SDS011;806;48.770;9.156;2023-05-09T09:22:08;3.20;;;2.88;;
1625;SDS011;806;48.770;9.156;2023-05-09T09:24:39;3.20;;;2.60;;
1625;SDS011;806;48.770;9.156;2023-05-09T09:27:06;3.85;;;2.33;;
1625;SDS011;806;48.770;9.156;2023-05-09T09:29:35;2.97;;;2.60;;
1625;SDS011;806;48.770;9.156;2023-05-09T09:32:03;3.13;;;2.60;;
1625;SDS011;806;48.770;9.156;2023-05-09T09:34:31;4.45;;;3.22;;
1625;SDS011;806;48.770;9.156;2023-05-09T09:36:59;4.25;;;3.88;;
1625;SDS011;806;48.770;9.156;2023-05-09T09:39:26;3.22;;;2.92;;
1625;SDS011;806;48.770;9.156;2023-05-09T09:41:53;3.90;;;3.45;;
1625;SDS011;806;48.770;9.156;2023-05-09T09:44:21;4.00;;;2.88;;
1625;SDS011;806;48.770;9.156;2023-05-09T09:46:49;3.33;;;2.72;;
1625;SDS011;806;48.770;9.156;2023-05-09T09:49:18;3.93;;;2.30;;
1625;SDS011;806;48.770;9.156;2023-05-09T09:51:50;3.13;;;2.05;;
1625;SDS011;806;48.770;9.156;2023-05-09T09:54:17;2.10;;;1.60;;
1625;SDS011;806;48.770;9.156;2023-05-09T09:56:45;2.47;;;2.08;;
1625;SDS011;806;48.770;9.156;2023-05-09T09:59:14;2.30;;;1.98;;
1625;SDS011;806;48.770;9.156;2023-05-09T10:04:27;3.00;;;2.70;;
1625;SDS011;806;48.770;9.156;2023-05-09T10:06:57;3.33;;;2.50;;
1625;SDS011;806;48.770;9.156;2023-05-09T10:09:27;3.85;;;3.00;;
1625;SDS011;806;48.770;9.156;2023-05-09T10:11:55;3.40;;;2.80;;
1625;SDS011;806;48.770;9.156;2023-05-09T10:14:26;3.60;;;2.20;;
1625;SDS011;806;48.770;9.156;2023-05-09T10:16:54;4.80;;;4.20;;
1625;SDS011;806;48.770;9.156;2023-05-09T10:19:24;4.07;;;3.45;;
1625;SDS011;806;48.770;9.156;2023-05-09T10:21:54;4.32;;;3.53;;
1625;SDS011;806;48.770;9.156;2023-05-09T10:24:25;3.75;;;3.40;;
1625;SDS011;806;48.770;9.156;2023-05-09T10:27:01;3.30;;;2.73;;
1625;SDS011;806;48.770;9.156;2023-05-09T10:29:31;2.85;;;2.28;;
1625;SDS011;806;48.770;9.156;2023-05-09T10:32:01;3.03;;;2.40;;
1625;SDS011;806;48.770;9.156;2023-05-09T10:34:39;2.60;;;2.13;;
1625;SDS011;806;48.770;9.156;2023-05-09T10:37:09;3.78;;;2.90;;
1625;SDS011;806;48.770;9.156;2023-05-09T10:39:37;3.72;;;3.13;;
1625;SDS011;806;48.770;9.156;2023-05-09T10:42:06;2.85;;;2.55;;
1625;SDS011;806;48.770;9.156;2023-05-09T10:44:34;4.97;;;4.00;;
1625;SDS011;806;48.770;9.156;2023-05-09T10:47:02;4.85;;;4.00;;
1625;SDS011;806;48.770;9.156;2023-05-09T10:49:30;3.20;;;2.33;;
1625;SDS011;806;48.770;9.156;2023-05-09T10:51:59;5.00;;;3.87;;
1625;SDS011;806;48.770;9.156;2023-05-09T10:54:27;5.28;;;4.50;;
1625;SDS011;806;48.770;9.156;2023-05-09T10:56:57;4.82;;;4.05;;
1625;SDS011;806;48.770;9.156;2023-05-09T10:59:31;5.40;;;4.07;;
1625;SDS011;806;48.770;9.156;2023-05-09T11:01:59;4.05;;;3.17;;
1625;SDS011;806;48.770;9.156;2023-05-09T11:04:28;3.10;;;2.58;;
1625;SDS011;806;48.770;9.156;2023-05-09T11:06:56;2.80;;;2.10;;
1625;SDS011;806;48.770;9.156;2023-05-09T11:09:25;3.53;;;2.50;;
1625;SDS011;806;48.770;9.156;2023-05-09T11:11:54;2.58;;;2.30;;
1625;SDS011;806;48.770;9.156;2023-05-09T11:14:29;3.30;;;2.23;;
1625;SDS011;806;48.770;9.156;2023-05-09T11:16:58;3.00;;;2.70;;
1625;SDS011;806;48.770;9.156;2023-05-09T11:19:35;2.80;;;2.25;;
1625;SDS011;806;48.770;9.156;2023-05-09T11:22:16;3.15;;;1.70;;
1625;SDS011;806;48.770;9.156;2023-05-09T11:24:47;2.73;;;1.83;;
1625;SDS011;806;48.770;9.156;2023-05-09T11:27:15;3.67;;;2.20;;
1625;SDS011;806;48.770;9.156;2023-05-09T11:29:46;2.80;;;1.60;;
1625;SDS011;806;48.770;9.156;2023-05-09T11:32:16;1.60;;;1.40;;
1625;SDS011;806;48.770;9.156;2023-05-09T11:34:44;2.50;;;1.10;;
1625;SDS011;806;48.770;9.156;2023-05-09T11:37:11;1.30;;;1.00;;
1625;SDS011;806;48.770;9.156;2023-05-09T11:39:56;1.90;;;1.10;;
1625;SDS011;806;48.770;9.156;2023-05-09T11:42:24;0.90;;;0.70;;
1625;SDS011;806;48.770;9.156;2023-05-09T11:44:53;1.10;;;0.73;;
1625;SDS011;806;48.770;9.156;2023-05-09T11:47:21;1.23;;;0.90;;
1625;SDS011;806;48.770;9.156;2023-05-09T11:49:48;1.20;;;0.80;;
1625;SDS011;806;48.770;9.156;2023-05-09T11:52:17;1.10;;;0.80;;
1625;SDS011;806;48.770;9.156;2023-05-09T11:54:45;1.10;;;0.80;;
1625;SDS011;806;48.770;9.156;2023-05-09T11:57:14;1.15;;;0.70;;
1625;SDS011;806;48.770;9.156;2023-05-09T11:59:42;1.00;;;0.80;;
1625;SDS011;806;48.770;9.156;2023-05-09T12:02:10;0.80;;;0.60;;
1625;SDS011;806;48.770;9.156;2023-05-09T12:04:37;0.93;;;0.70;;
1625;SDS011;806;48.770;9.156;2023-05-09T12:07:04;1.00;;;0.80;;
1625;SDS011;806;48.770;9.156;2023-05-09T12:09:32;1.00;;;0.70;;
1625;SDS011;806;48.770;9.156;2023-05-09T12:12:07;0.73;;;0.50;;
1625;SDS011;806;48.770;9.156;2023-05-09T12:14:37;0.90;;;0.60;;
1625;SDS011;806;48.770;9.156;2023-05-09T12:17:05;1.10;;;0.70;;
1625;SDS011;806;48.770;9.156;2023-05-09T12:19:32;0.90;;;0.70;;
1625;SDS011;806;48.770;9.156;2023-05-09T12:22:00;0.98;;;0.60;;
1625;SDS011;806;48.770;9.156;2023-05-09T12:24:29;0.90;;;0.70;;
1625;SDS011;806;48.770;9.156;2023-05-09T12:26:57;0.63;;;0.50;;
1625;SDS011;806;48.770;9.156;2023-05-09T12:29:25;0.70;;;0.50;;
1625;SDS011;806;48.770;9.156;2023-05-09T12:31:56;0.73;;;0.52;;
1625;SDS011;806;48.770;9.156;2023-05-09T12:34:24;0.80;;;0.57;;
1625;SDS011;806;48.770;9.156;2023-05-09T12:36:53;0.70;;;0.50;;
1625;SDS011;806;48.770;9.156;2023-05-09T12:39:22;0.70;;;0.50;;
1625;SDS011;806;48.770;9.156;2023-05-09T12:41:50;0.70;;;0.50;;
1625;SDS011;806;48.770;9.156;2023-05-09T12:44:19;0.80;;;0.50;;
1625;SDS011;806;48.770;9.156;2023-05-09T12:46:57;0.70;;;0.50;;
1625;SDS011;806;48.770;9.156;2023-05-09T12:49:25;0.70;;;0.55;;
1625;SDS011;806;48.770;9.156;2023-05-09T12:51:53;0.65;;;0.50;;
1625;SDS011;806;48.770;9.156;2023-05-09T12:54:21;1.10;;;0.40;;
1625;SDS011;806;48.770;9.156;2023-05-09T12:56:49;1.00;;;0.50;;
1625;SDS011;806;48.770;9.156;2023-05-09T12:59:20;0.60;;;0.40;;
1625;SDS011;806;48.770;9.156;2023-05-09T13:01:51;0.70;;;0.50;;
1625;SDS011;806;48.770;9.156;2023-05-09T13:04:22;0.70;;;0.50;;
1625;SDS011;806;48.770;9.156;2023-05-09T13:06:51;0.60;;;0.40;;
1625;SDS011;806;48.770;9.156;2023-05-09T13:09:20;0.70;;;0.50;;
1625;SDS011;806;48.770;9.156;2023-05-09T13:11:48;0.73;;;0.47;;
1625;SDS011;806;48.770;9.156;2023-05-09T13:14:16;0.60;;;0.40;;
1625;SDS011;806;48.770;9.156;2023-05-09T13:16:43;0.70;;;0.50;;
1625;SDS011;806;48.770;9.156;2023-05-09T13:19:13;0.90;;;0.40;;
1625;SDS011;806;48.770;9.156;2023-05-09T13:21:41;0.73;;;0.50;;
1625;SDS011;806;48.770;9.156;2023-05-09T13:24:09;0.70;;;0.50;;
1625;SDS011;806;48.770;9.156;2023-05-09T13:26:36;0.70;;;0.50;;
1625;SDS011;806;48.770;9.156;2023-05-09T13:29:03;0.70;;;0.60;;
1625;SDS011;806;48.770;9.156;2023-05-09T13:31:30;0.90;;;0.60;;
1625;SDS011;806;48.770;9.156;2023-05-09T13:33:57;1.30;;;0.60;;
1625;SDS011;806;48.770;9.156;2023-05-09T13:36:24;1.67;;;0.80;;
1625;SDS011;806;48.770;9.156;2023-05-09T13:38:52;0.70;;;0.55;;
1625;SDS011;806;48.770;9.156;2023-05-09T13:41:19;0.70;;;0.50;;
1625;SDS011;806;48.770;9.156;2023-05-09T13:43:48;2.10;;;0.60;;
1625;SDS011;806;48.770;9.156;2023-05-09T13:46:15;1.00;;;0.60;;
1625;SDS011;806;48.770;9.156;2023-05-09T13:48:42;0.98;;;0.60;;
1625;SDS011;806;48.770;9.156;2023-05-09T13:51:11;0.88;;;0.85;;
1625;SDS011;806;48.770;9.156;2023-05-09T13:53:39;0.77;;;0.60;;
1625;SDS011;806;48.770;9.156;2023-05-09T13:56:08;0.90;;;0.50;;
1625;SDS011;806;48.770;9.156;2023-05-09T13:58:35;0.70;;;0.50;;
1625;SDS011;806;48.770;9.156;2023-05-09T14:01:02;1.20;;;0.60;;
1625;SDS011;806;48.770;9.156;2023-05-09T14:03:30;0.80;;;0.60;;
1625;SDS011;806;48.770;9.156;2023-05-09T14:06:00;0.70;;;0.50;;
1625;SDS011;806;48.770;9.156;2023-05-09T14:08:28;0.90;;;0.60;;
1625;SDS011;806;48.770;9.156;2023-05-09T14:10:55;1.20;;;0.60;;
1625;SDS011;806;48.770;9.156;2023-05-09T14:13:23;0.80;;;0.50;;
1625;SDS011;806;48.770;9.156;2023-05-09T14:15:50;1.10;;;0.80;;
1625;SDS011;806;48.770;9.156;2023-05-09T14:18:18;1.00;;;0.70;;
1625;SDS011;806;48.770;9.156;2023-05-09T14:20:45;2.20;;;0.60;;
1625;SDS011;806;48.770;9.156;2023-05-09T14:23:12;0.80;;;0.50;;
1625;SDS011;806;48.770;9.156;2023-05-09T14:25:39;1.10;;;0.60;;
1625;SDS011;806;48.770;9.156;2023-05-09T14:28:06;0.90;;;0.60;;
1625;SDS011;806;48.770;9.156;2023-05-09T14:30:34;0.80;;;0.50;;
1625;SDS011;806;48.770;9.156;2023-05-09T14:33:02;0.93;;;0.50;;
1625;SDS011;806;48.770;9.156;2023-05-09T14:35:29;0.70;;;0.50;;
1625;SDS011;806;48.770;9.156;2023-05-09T14:37:58;1.50;;;0.50;;
1625;SDS011;806;48.770;9.156;2023-05-09T14:40:25;1.55;;;0.90;;
1625;SDS011;806;48.770;9.156;2023-05-09T14:42:55;1.55;;;1.30;;
1625;SDS011;806;48.770;9.156;2023-05-09T14:45:23;0.60;;;0.50;;
1625;SDS011;806;48.770;9.156;2023-05-09T14:47:51;0.60;;;0.40;;
1625;SDS011;806;48.770;9.156;2023-05-09T14:50:19;0.50;;;0.30;;
1625;SDS011;806;48.770;9.156;2023-05-09T14:52:46;0.90;;;0.40;;
1625;SDS011;806;48.770;9.156;2023-05-09T14:55:14;0.90;;;0.40;;
1625;SDS011;806;48.770;9.156;2023-05-09T14:57:41;0.70;;;0.50;;
1625;SDS011;806;48.770;9.156;2023-05-09T15:00:09;0.60;;;0.40;;
1625;SDS011;806;48.770;9.156;2023-05-09T15:02:37;0.60;;;0.40;;
1625;SDS011;806;48.770;9.156;2023-05-09T15:05:08;0.70;;;0.47;;
1625;SDS011;806;48.770;9.156;2023-05-09T15:07:36;1.50;;;0.40;;
1625;SDS011;806;48.770;9.156;2023-05-09T15:10:04;0.90;;;0.30;;
1625;SDS011;806;48.770;9.156;2023-05-09T15:12:31;0.70;;;0.40;;
1625;SDS011;806;48.770;9.156;2023-05-09T15:15:07;0.70;;;0.50;;
1625;SDS011;806;48.770;9.156;2023-05-09T15:17:38;0.50;;;0.30;;
1625;SDS011;806;48.770;9.156;2023-05-09T15:20:06;0.50;;;0.40;;
1625;SDS011;806;48.770;9.156;2023-05-09T15:22:35;0.60;;;0.40;;
1625;SDS011;806;48.770;9.156;2023-05-09T15:25:03;1.40;;;0.40;;
1625;SDS011;806;48.770;9.156;2023-05-09T15:27:30;0.90;;;0.40;;
1625;SDS011;806;48.770;9.156;2023-05-09T15:29:57;0.70;;;0.40;;
1625;SDS011;806;48.770;9.156;2023-05-09T15:32:25;0.90;;;0.40;;